Time;durP1;ratioP1;P1;durP2;ratioP2;P2;SDS_P1;SDS_P2;PMS_P1;PMS_P2;Temp;Humidity;BMP_temperature;BMP_pressure;BME280_temperature;BME280_humidity;BME280_pressure;Samples;Min_cycle;Max_cycle;Signal;HPM_P1;HPM_P2
2023/03/02 00:00:31;;;;;;;0.70;0.50;;;1.20;99.90;;;;;;5057000;28;20442;-74
2023/03/02 00:02:58;;;;;;;1.63;1.53;;;1.10;99.90;;;;;;5056962;28;20458;-74
2023/03/02 00:05:25;;;;;;;0.30;0.30;;;1.10;99.90;;;;;;5056643;28;20813;-74
2023/03/02 00:07:53;;;;;;;0.30;0.30;;;1.10;99.90;;;;;;5056492;28;20978;-74
2023/03/02 00:10:20;;;;;;;0.60;0.60;;;1.10;99.90;;;;;;5056704;28;21070;-73
2023/03/02 00:12:47;;;;;;;2.17;1.37;;;1.00;99.90;;;;;;5057040;28;20450;-73
2023/03/02 00:15:14;;;;;;;0.50;0.47;;;1.00;99.90;;;;;;5056759;28;20449;-74
2023/03/02 00:17:40;;;;;;;5.97;2.13;;;0.90;99.90;;;;;;5056629;28;20477;-74
2023/03/02 00:20:10;;;;;;;0.70;0.70;;;0.90;99.90;;;;;;5056655;28;20442;-74
2023/03/02 00:22:37;;;;;;;1.47;1.37;;;0.90;99.90;;;;;;5056598;28;20446;-74
2023/03/02 00:25:06;;;;;;;0.40;0.40;;;0.90;99.90;;;;;;5056572;28;20446;-74
2023/03/02 00:27:32;;;;;;;2.30;1.00;;;0.80;99.90;;;;;;5056171;28;20473;-74
2023/03/02 00:29:59;;;;;;;6.53;1.60;;;0.80;99.90;;;;;;5056381;28;20493;-74
2023/03/02 00:32:26;;;;;;;1.07;0.70;;;0.80;99.90;;;;;;5056446;28;20442;-74
2023/03/02 00:34:53;;;;;;;1.70;1.10;;;0.80;99.90;;;;;;5056405;28;20450;-73
2023/03/02 00:37:19;;;;;;;1.37;0.93;;;0.80;99.90;;;;;;5056223;28;20466;-74
2023/03/02 00:39:46;;;;;;;5.03;0.87;;;0.80;99.90;;;;;;5055812;28;20487;-74
2023/03/02 00:42:14;;;;;;;1.10;0.90;;;0.70;99.90;;;;;;5055933;28;20946;-74
2023/03/02 00:44:41;;;;;;;3.03;0.60;;;0.70;99.90;;;;;;5056169;28;20417;-74
2023/03/02 00:47:08;;;;;;;3.53;1.23;;;0.70;99.90;;;;;;5056050;28;20481;-74
2023/03/02 00:49:35;;;;;;;1.27;1.17;;;0.70;99.90;;;;;;5055823;28;20449;-74
2023/03/02 00:52:02;;;;;;;2.80;0.80;;;0.70;99.90;;;;;;5055963;28;20486;-74
2023/03/02 00:54:28;;;;;;;1.70;1.60;;;0.60;99.90;;;;;;5056021;28;20457;-74
2023/03/02 00:56:55;;;;;;;0.90;0.90;;;0.70;99.90;;;;;;5055880;28;20477;-74
2023/03/02 00:59:26;;;;;;;1.00;0.40;;;0.60;99.90;;;;;;5055635;28;20965;-74
2023/03/02 01:01:56;;;;;;;0.97;0.87;;;0.70;99.90;;;;;;5055651;28;20937;-74
2023/03/02 01:04:24;;;;;;;0.77;0.50;;;0.60;99.90;;;;;;5055937;28;20779;-74
2023/03/02 01:06:50;;;;;;;8.17;1.67;;;0.60;99.90;;;;;;5055950;28;20478;-74
2023/03/02 01:09:17;;;;;;;0.60;0.60;;;0.70;99.90;;;;;;5055350;28;20454;-74
2023/03/02 01:11:44;;;;;;;0.53;0.53;;;0.60;99.90;;;;;;5055620;28;20486;-73
2023/03/02 01:14:10;;;;;;;0.67;0.67;;;0.60;99.90;;;;;;5055352;28;20961;-74
2023/03/02 01:16:38;;;;;;;0.80;0.80;;;0.60;99.90;;;;;;5055580;28;20461;-74
2023/03/02 01:19:05;;;;;;;0.70;0.70;;;0.50;99.90;;;;;;5055472;28;20473;-74
2023/03/02 01:21:32;;;;;;;1.80;0.90;;;0.50;99.90;;;;;;5055509;28;20438;-74
2023/03/02 01:23:59;;;;;;;5.03;0.90;;;0.60;99.90;;;;;;5055163;28;20960;-74
2023/03/02 01:26:26;;;;;;;1.87;1.13;;;0.60;99.90;;;;;;5055365;28;20460;-74
2023/03/02 01:28:54;;;;;;;0.83;0.83;;;0.60;99.90;;;;;;5055293;28;20458;-74
2023/03/02 01:31:21;;;;;;;1.60;0.97;;;0.60;99.90;;;;;;5055258;28;20508;-74
2023/03/02 01:33:49;;;;;;;0.50;0.50;;;0.60;99.90;;;;;;5055249;28;20463;-74
2023/03/02 01:36:16;;;;;;;0.80;0.57;;;0.60;99.90;;;;;;5054923;28;20450;-74
2023/03/02 01:38:42;;;;;;;1.80;0.97;;;0.60;99.90;;;;;;5054897;28;20482;-74
2023/03/02 01:41:09;;;;;;;1.53;0.50;;;0.50;99.90;;;;;;5055156;28;20447;-74
2023/03/02 01:43:37;;;;;;;0.80;0.40;;;0.60;99.90;;;;;;5055136;28;20454;-74
2023/03/02 01:46:06;;;;;;;0.77;0.77;;;0.60;99.90;;;;;;5055024;28;20451;-74
2023/03/02 01:48:38;;;;;;;2.53;0.80;;;0.50;99.90;;;;;;5054955;28;20474;-74
2023/03/02 01:51:07;;;;;;;1.80;1.13;;;0.50;99.90;;;;;;5054632;28;20992;-74
2023/03/02 01:53:36;;;;;;;7.53;0.93;;;0.40;99.90;;;;;;5055177;28;20442;-74
2023/03/02 01:56:04;;;;;;;1.73;1.00;;;0.40;99.90;;;;;;5054574;28;20976;-74
2023/03/02 01:58:34;;;;;;;6.07;1.50;;;0.30;99.90;;;;;;5054459;28;20473;-73
2023/03/02 02:01:01;;;;;;;3.33;1.23;;;0.30;99.90;;;;;;5054518;28;20922;-74
2023/03/02 02:03:30;;;;;;;0.60;0.60;;;0.30;99.90;;;;;;5054740;28;20446;-73
2023/03/02 02:06:06;;;;;;;1.70;1.00;;;0.30;99.90;;;;;;5054672;28;20451;-74
2023/03/02 02:08:34;;;;;;;2.73;1.50;;;0.30;99.90;;;;;;5055426;28;20466;-73
2023/03/02 02:11:01;;;;;;;0.70;0.70;;;0.40;99.90;;;;;;5054490;28;20478;-74
2023/03/02 02:13:28;;;;;;;0.87;0.87;;;0.40;99.90;;;;;;5054517;28;20449;-73
2023/03/02 02:15:55;;;;;;;1.77;0.70;;;0.30;99.90;;;;;;5054182;28;20446;-74
2023/03/02 02:18:22;;;;;;;3.27;1.47;;;0.30;99.90;;;;;;5054370;28;20470;-74
2023/03/02 02:20:51;;;;;;;7.53;0.83;;;0.30;99.90;;;;;;5053639;28;20446;-74
2023/03/02 02:23:27;;;;;;;2.37;0.97;;;0.30;99.90;;;;;;5054288;28;20455;-73
2023/03/02 02:26:21;;;;;;;0.50;0.40;;;0.30;99.90;;;;;;5054321;28;20437;-74
2023/03/02 02:28:56;;;;;;;1.33;1.07;;;0.30;99.90;;;;;;5050316;28;21085;-73
2023/03/02 02:31:27;;;;;;;0.90;0.70;;;0.30;99.90;;;;;;5054145;28;20469;-74
2023/03/02 02:33:59;;;;;;;3.20;0.87;;;0.30;99.90;;;;;;5053886;28;20904;-74
2023/03/02 02:36:31;;;;;;;0.60;0.60;;;0.30;99.90;;;;;;5054245;28;20465;-74
2023/03/02 02:39:02;;;;;;;0.67;0.60;;;0.20;99.90;;;;;;5053835;28;20485;-74
2023/03/02 02:41:35;;;;;;;0.60;0.60;;;0.30;99.90;;;;;;5053756;28;20902;-73
2023/03/02 02:44:01;;;;;;;1.67;1.00;;;0.30;99.90;;;;;;5054039;28;20437;-74
2023/03/02 02:46:29;;;;;;;0.93;0.53;;;0.20;99.90;;;;;;5053607;28;20455;-74
2023/03/02 02:48:56;;;;;;;0.30;0.30;;;0.20;99.90;;;;;;5053514;28;20477;-73
2023/03/02 02:51:26;;;;;;;1.90;1.33;;;0.20;99.90;;;;;;5053488;28;20993;-73
2023/03/02 02:53:57;;;;;;;1.43;0.77;;;0.20;99.90;;;;;;5053512;28;20960;-73
2023/03/02 02:56:26;;;;;;;0.83;0.73;;;0.20;99.90;;;;;;5053828;28;20434;-73
2023/03/02 02:58:56;;;;;;;0.60;0.60;;;0.20;99.90;;;;;;5053396;28;21006;-74
2023/03/02 03:01:25;;;;;;;0.30;0.30;;;0.20;99.90;;;;;;5054052;28;20522;-74
2023/03/02 03:03:53;;;;;;;0.97;0.33;;;0.20;99.90;;;;;;5053819;28;20446;-74
2023/03/02 03:06:24;;;;;;;0.47;0.47;;;0.20;99.90;;;;;;5053602;28;20446;-74
2023/03/02 03:08:58;;;;;;;0.70;0.70;;;0.10;99.90;;;;;;5053251;28;20520;-74
2023/03/02 03:11:27;;;;;;;1.03;0.60;;;0.10;99.90;;;;;;5053793;28;20478;-74
2023/03/02 03:14:01;;;;;;;0.40;0.40;;;0.10;99.90;;;;;;5053228;28;20453;-74
2023/03/02 03:16:29;;;;;;;4.17;1.07;;;0.10;99.90;;;;;;5053541;28;20528;-74
2023/03/02 03:18:58;;;;;;;0.70;0.70;;;0.10;99.90;;;;;;5053140;28;20478;-74
2023/03/02 03:21:25;;;;;;;0.30;0.30;;;0.10;99.90;;;;;;5053363;28;20934;-74
2023/03/02 03:23:52;;;;;;;1.13;0.60;;;0.10;99.90;;;;;;5053072;28;20933;-74
2023/03/02 03:26:19;;;;;;;0.37;0.37;;;0.10;99.90;;;;;;5053352;28;20512;-74
2023/03/02 03:28:46;;;;;;;0.90;0.90;;;0.10;99.90;;;;;;5053282;28;20466;-74
2023/03/02 03:31:14;;;;;;;4.17;0.87;;;0.10;99.90;;;;;;5053199;28;20482;-74
2023/03/02 03:33:41;;;;;;;2.70;1.40;;;0.10;99.90;;;;;;5053128;28;20447;-74
2023/03/02 03:36:08;;;;;;;1.60;1.50;;;0.10;99.90;;;;;;5053228;28;20450;-74
2023/03/02 03:38:34;;;;;;;1.27;0.80;;;0.10;99.90;;;;;;5052615;28;20856;-74
2023/03/02 03:41:01;;;;;;;0.37;0.37;;;0.10;99.90;;;;;;5052902;28;20424;-74
2023/03/02 03:43:28;;;;;;;0.70;0.70;;;0.10;99.90;;;;;;5053143;28;20461;-74
2023/03/02 03:45:55;;;;;;;0.63;0.63;;;0.10;99.90;;;;;;5053177;28;20450;-74
2023/03/02 03:48:23;;;;;;;2.40;0.70;;;0.10;99.90;;;;;;5053056;28;20470;-78
2023/03/02 03:50:49;;;;;;;0.77;0.70;;;0.10;99.90;;;;;;5053016;28;20446;-78
2023/03/02 03:53:17;;;;;;;0.40;0.40;;;0.10;99.90;;;;;;5053349;28;20453;-78
2023/03/02 03:55:43;;;;;;;0.83;0.83;;;0.10;99.90;;;;;;5053068;28;20453;-78
2023/03/02 03:58:10;;;;;;;0.57;0.57;;;0.10;99.90;;;;;;5053229;28;20467;-78
2023/03/02 04:00:37;;;;;;;1.00;0.90;;;0.10;99.90;;;;;;5052939;28;20965;-78
2023/03/02 04:03:04;;;;;;;0.40;0.40;;;0.00;99.90;;;;;;5053035;28;20443;-78
2023/03/02 04:05:32;;;;;;;0.87;0.87;;;0.10;99.90;;;;;;5052979;28;20446;-78
2023/03/02 04:08:00;;;;;;;0.67;0.53;;;0.10;99.90;;;;;;5052897;28;20477;-78
2023/03/02 04:10:27;;;;;;;1.03;0.97;;;0.10;99.90;;;;;;5052604;28;20972;-78
2023/03/02 04:12:54;;;;;;;0.70;0.60;;;0.10;99.90;;;;;;5053038;28;20489;-78
2023/03/02 04:15:21;;;;;;;3.60;1.53;;;0.00;99.90;;;;;;5052860;28;20521;-78
2023/03/02 04:17:48;;;;;;;0.60;0.60;;;0.10;99.90;;;;;;5053007;28;20679;-78
2023/03/02 04:20:15;;;;;;;1.70;1.33;;;0.00;99.90;;;;;;5052535;28;20442;-78
2023/03/02 04:22:45;;;;;;;0.77;0.73;;;0.00;99.90;;;;;;5053054;28;20461;-78
2023/03/02 04:25:12;;;;;;;1.43;0.97;;;0.10;99.90;;;;;;5052767;28;20454;-78
2023/03/02 04:27:40;;;;;;;1.63;1.10;;;0.10;99.90;;;;;;5052683;28;20469;-78
2023/03/02 04:30:08;;;;;;;0.60;0.60;;;0.00;99.90;;;;;;5052610;28;20453;-78
2023/03/02 04:32:35;;;;;;;17.27;0.97;;;0.00;99.90;;;;;;5052616;28;20482;-78
2023/03/02 04:35:02;;;;;;;0.40;0.40;;;0.10;99.90;;;;;;5052745;28;20416;-78
2023/03/02 04:37:28;;;;;;;0.83;0.83;;;0.10;99.90;;;;;;5052261;28;20477;-78
2023/03/02 04:39:57;;;;;;;0.70;0.53;;;0.10;99.90;;;;;;5052622;28;20450;-78
2023/03/02 04:42:24;;;;;;;1.13;1.13;;;0.10;99.90;;;;;;5052630;28;20445;-78
2023/03/02 04:44:50;;;;;;;3.40;2.17;;;0.10;99.90;;;;;;5054495;28;20451;-79
2023/03/02 04:47:17;;;;;;;1.57;0.80;;;0.10;99.90;;;;;;5056126;28;20473;-78
2023/03/02 04:49:44;;;;;;;0.40;0.30;;;0.10;99.90;;;;;;5056105;28;20457;-78
2023/03/02 04:52:11;;;;;;;1.57;1.00;;;0.10;99.90;;;;;;5056026;28;20486;-78
2023/03/02 04:54:38;;;;;;;1.17;0.93;;;0.10;99.90;;;;;;5055775;28;20937;-78
2023/03/02 04:57:07;;;;;;;3.80;0.97;;;0.20;99.90;;;;;;5055953;28;20466;-78
2023/03/02 04:59:34;;;;;;;0.60;0.60;;;0.20;99.90;;;;;;5055961;28;20454;-79
2023/03/02 05:02:01;;;;;;;4.60;3.00;;;0.20;99.90;;;;;;5055932;28;20473;-79
2023/03/02 05:04:28;;;;;;;1.93;1.77;;;0.20;99.90;;;;;;5055571;28;20786;-78
2023/03/02 05:06:56;;;;;;;1.13;1.03;;;0.20;99.90;;;;;;5055846;28;20450;-78
2023/03/02 05:09:26;;;;;;;7.60;1.17;;;0.20;99.90;;;;;;5055780;28;20457;-79
2023/03/02 05:11:54;;;;;;;0.63;0.63;;;0.20;99.90;;;;;;5055824;28;20494;-79
2023/03/02 05:14:22;;;;;;;0.53;0.53;;;0.20;99.90;;;;;;5055709;28;20511;-79
2023/03/02 05:16:49;;;;;;;0.87;0.87;;;0.20;99.90;;;;;;5055538;28;20449;-78
2023/03/02 05:19:16;;;;;;;0.33;0.30;;;0.20;99.90;;;;;;5055216;28;20447;-79
2023/03/02 05:21:43;;;;;;;1.13;0.70;;;0.20;99.90;;;;;;5055251;28;20455;-78
2023/03/02 05:24:13;;;;;;;2.37;0.80;;;0.20;99.90;;;;;;5055492;28;20438;-78
2023/03/02 05:26:40;;;;;;;0.57;0.57;;;0.20;99.90;;;;;;5055494;28;20455;-79
2023/03/02 05:29:07;;;;;;;4.20;1.87;;;0.20;99.90;;;;;;5055133;28;20824;-78
2023/03/02 05:31:38;;;;;;;1.60;1.50;;;0.20;99.90;;;;;;5055287;28;20501;-79
2023/03/02 05:34:06;;;;;;;1.23;0.50;;;0.20;99.90;;;;;;5055361;28;20431;-79
2023/03/02 05:36:33;;;;;;;0.90;0.90;;;0.10;99.90;;;;;;5055414;28;20458;-79
2023/03/02 05:39:00;;;;;;;0.50;0.50;;;0.20;99.90;;;;;;5054692;28;20486;-79
2023/03/02 05:41:27;;;;;;;1.20;1.20;;;0.20;99.90;;;;;;5055435;28;20465;-79
2023/03/02 05:43:54;;;;;;;2.40;1.70;;;0.20;99.90;;;;;;5054818;28;20450;-79
2023/03/02 05:46:20;;;;;;;1.27;1.17;;;0.20;99.90;;;;;;5055065;28;20446;-79
2023/03/02 05:48:49;;;;;;;0.93;0.93;;;0.20;99.90;;;;;;5055094;28;20449;-79
2023/03/02 05:51:16;;;;;;;1.13;1.03;;;0.30;99.90;;;;;;5054930;28;20454;-79
2023/03/02 05:53:42;;;;;;;0.30;0.30;;;0.30;99.90;;;;;;5054670;28;20977;-79
2023/03/02 05:56:09;;;;;;;1.57;1.00;;;0.40;99.90;;;;;;5053761;28;20450;-79
2023/03/02 05:58:36;;;;;;;0.70;0.60;;;0.40;99.90;;;;;;5054805;28;20470;-79
2023/03/02 06:01:08;;;;;;;1.37;1.27;;;0.40;99.90;;;;;;5054795;28;20457;-80
2023/03/02 06:03:34;;;;;;;0.47;0.47;;;0.40;99.90;;;;;;5054817;28;20423;-79
2023/03/02 06:06:03;;;;;;;2.20;0.73;;;0.40;99.90;;;;;;5054643;28;20450;-79
2023/03/02 06:08:29;;;;;;;1.10;1.10;;;0.40;99.90;;;;;;5054292;28;21004;-79
2023/03/02 06:10:56;;;;;;;2.03;1.47;;;0.50;99.90;;;;;;5054618;28;20456;-79
2023/03/02 06:13:23;;;;;;;0.60;0.50;;;0.50;99.90;;;;;;5054232;28;20478;-79
2023/03/02 06:15:50;;;;;;;0.60;0.40;;;0.50;99.90;;;;;;5054530;28;20446;-79
2023/03/02 06:18:16;;;;;;;2.70;1.10;;;0.60;99.90;;;;;;5054385;28;20478;-79
2023/03/02 06:20:43;;;;;;;1.53;1.53;;;0.60;99.90;;;;;;5054679;28;20446;-79
2023/03/02 06:23:12;;;;;;;0.80;0.57;;;0.60;99.90;;;;;;5054378;28;20871;-79
2023/03/02 06:25:42;;;;;;;3.10;2.33;;;0.60;99.90;;;;;;5054327;28;20442;-79
2023/03/02 06:28:09;;;;;;;0.97;0.97;;;0.70;99.90;;;;;;5054481;28;20486;-79
2023/03/02 06:30:35;;;;;;;1.30;0.73;;;0.70;99.90;;;;;;5053902;28;20950;-79
2023/03/02 06:33:02;;;;;;;1.30;1.20;;;0.70;99.90;;;;;;5054125;28;20482;-79
2023/03/02 06:35:29;;;;;;;1.73;1.63;;;0.70;99.90;;;;;;5054250;28;20457;-79
2023/03/02 06:37:56;;;;;;;0.90;0.90;;;0.70;99.90;;;;;;5053573;28;20490;-79
2023/03/02 06:40:24;;;;;;;2.50;1.00;;;0.70;99.90;;;;;;5053840;28;20431;-79
2023/03/02 06:42:50;;;;;;;9.80;1.37;;;0.70;99.90;;;;;;5053698;28;20814;-79
2023/03/02 06:45:17;;;;;;;4.40;0.93;;;0.80;99.90;;;;;;5053976;28;20421;-79
2023/03/02 06:47:44;;;;;;;7.33;1.00;;;0.80;99.90;;;;;;5053569;28;21004;-79
2023/03/02 06:50:11;;;;;;;0.60;0.60;;;0.80;99.90;;;;;;5054161;28;20457;-79
2023/03/02 06:52:38;;;;;;;5.00;1.80;;;0.90;99.90;;;;;;5053815;28;20486;-79
2023/03/02 06:55:06;;;;;;;0.33;0.33;;;0.90;99.90;;;;;;5053787;28;20792;-79
2023/03/02 06:57:34;;;;;;;1.03;1.03;;;1.00;99.90;;;;;;5053672;28;20474;-79
2023/03/02 07:00:06;;;;;;;1.10;0.73;;;1.00;99.90;;;;;;5053771;28;20442;-79
2023/03/02 07:02:33;;;;;;;2.27;1.27;;;1.10;99.90;;;;;;5053709;28;20485;-79
2023/03/02 07:04:59;;;;;;;1.43;1.33;;;1.10;99.90;;;;;;5053639;28;20449;-79
2023/03/02 07:07:26;;;;;;;0.63;0.50;;;1.20;99.90;;;;;;5052891;28;20843;-79
2023/03/02 07:09:53;;;;;;;3.17;1.13;;;1.10;99.90;;;;;;5053559;28;20450;-79
2023/03/02 07:12:19;;;;;;;0.50;0.50;;;1.20;99.90;;;;;;5053184;28;20998;-79
2023/03/02 07:14:47;;;;;;;0.97;0.80;;;1.30;99.90;;;;;;5053518;28;20450;-79
2023/03/02 07:17:14;;;;;;;2.23;1.70;;;1.30;99.90;;;;;;5053103;28;20473;-79
2023/03/02 07:19:41;;;;;;;0.30;0.30;;;1.40;99.90;;;;;;5053420;28;20450;-79
2023/03/02 07:22:08;;;;;;;1.50;1.50;;;1.40;99.90;;;;;;5053630;28;20446;-79
2023/03/02 07:24:35;;;;;;;2.47;0.90;;;1.40;99.90;;;;;;5053340;28;20449;-78
2023/03/02 07:27:01;;;;;;;1.33;1.33;;;1.50;99.90;;;;;;5053271;28;20458;-79
2023/03/02 07:29:28;;;;;;;1.63;0.83;;;1.50;99.90;;;;;;5053016;28;20831;-78
2023/03/02 07:31:59;;;;;;;0.67;0.67;;;1.50;99.90;;;;;;5053225;28;20450;-79
2023/03/02 07:34:26;;;;;;;4.67;1.33;;;1.50;99.90;;;;;;5053299;28;20466;-79
2023/03/02 07:36:53;;;;;;;3.10;1.50;;;1.60;99.90;;;;;;5052814;28;20949;-78
2023/03/02 07:39:20;;;;;;;2.63;0.60;;;1.60;99.90;;;;;;5053096;28;20482;-78
2023/03/02 07:41:47;;;;;;;1.67;1.50;;;1.70;99.90;;;;;;5053228;28;20459;-79
2023/03/02 07:44:14;;;;;;;3.33;1.27;;;1.70;99.90;;;;;;5053198;28;20438;-79
2023/03/02 07:46:40;;;;;;;0.50;0.50;;;1.80;99.90;;;;;;5052765;28;20453;-79
2023/03/02 07:49:08;;;;;;;4.20;0.83;;;1.90;99.90;;;;;;5053045;28;20473;-78
2023/03/02 07:51:35;;;;;;;1.23;0.80;;;2.00;99.90;;;;;;5053086;28;20450;-79
2023/03/02 07:54:03;;;;;;;1.60;1.40;;;2.10;99.90;;;;;;5053275;28;20478;-79
2023/03/02 07:56:30;;;;;;;0.40;0.40;;;2.10;99.90;;;;;;5053217;28;20453;-79
2023/03/02 07:58:57;;;;;;;2.00;0.77;;;2.20;99.90;;;;;;5053009;28;20489;-78
2023/03/02 08:01:24;;;;;;;1.43;1.33;;;2.30;99.90;;;;;;5052708;28;20956;-78
2023/03/02 08:03:51;;;;;;;1.47;0.77;;;2.30;99.90;;;;;;5052632;28;20934;-78
2023/03/02 08:06:19;;;;;;;3.53;1.03;;;2.30;99.90;;;;;;5052615;28;20845;-78
2023/03/02 08:08:45;;;;;;;3.30;1.07;;;2.30;99.90;;;;;;5052552;28;20965;-78
2023/03/02 08:11:14;;;;;;;0.90;0.40;;;2.40;99.90;;;;;;5052915;28;20449;-78
2023/03/02 08:13:41;;;;;;;1.60;0.97;;;2.40;99.90;;;;;;5052834;28;20505;-78
2023/03/02 08:16:09;;;;;;;0.70;0.63;;;2.50;99.90;;;;;;5052900;28;20472;-78
2023/03/02 08:18:37;;;;;;;0.97;0.97;;;2.60;99.90;;;;;;5052492;28;20848;-78
2023/03/02 08:21:04;;;;;;;1.97;1.83;;;2.70;99.90;;;;;;5056650;28;20453;-78
2023/03/02 08:23:32;;;;;;;2.93;1.03;;;2.60;99.90;;;;;;5057348;28;20458;-78
2023/03/02 08:25:59;;;;;;;0.53;0.53;;;2.60;99.90;;;;;;5056328;28;20961;-78
2023/03/02 08:28:25;;;;;;;0.77;0.70;;;2.60;99.90;;;;;;5056483;28;20466;-78
2023/03/02 08:30:56;;;;;;;2.30;0.93;;;2.60;99.90;;;;;;5056372;28;20457;-81
2023/03/02 08:33:23;;;;;;;7.43;0.80;;;2.60;99.90;;;;;;5056355;28;20510;-79
2023/03/02 08:36:01;;;;;;;1.03;0.93;;;2.60;99.90;;;;;;5056467;28;20940;-78
2023/03/02 08:38:29;;;;;;;2.77;1.80;;;2.50;99.90;;;;;;5055922;28;20988;-78
2023/03/02 08:40:58;;;;;;;3.30;0.70;;;2.50;99.90;;;;;;5056061;28;20810;-78
2023/03/02 08:43:26;;;;;;;1.80;1.37;;;2.50;99.90;;;;;;5055996;28;20942;-78
2023/03/02 08:45:54;;;;;;;0.63;0.63;;;2.50;99.90;;;;;;5056252;28;20442;-78
2023/03/02 08:48:21;;;;;;;1.17;1.13;;;2.50;99.90;;;;;;5056134;28;20477;-78
2023/03/02 08:50:55;;;;;;;0.97;0.83;;;2.60;99.90;;;;;;5056167;28;20814;-78
2023/03/02 08:53:22;;;;;;;2.20;1.63;;;2.70;99.90;;;;;;5056082;28;20468;-78
2023/03/02 08:55:49;;;;;;;0.77;0.77;;;2.70;99.90;;;;;;5056106;28;20797;-78
2023/03/02 08:58:17;;;;;;;15.13;2.53;;;2.70;99.90;;;;;;5055612;28;20977;-77
2023/03/02 09:00:44;;;;;;;1.33;0.87;;;2.80;99.90;;;;;;5055961;28;20449;-77
2023/03/02 09:03:10;;;;;;;2.20;1.70;;;2.90;99.90;;;;;;5055890;28;20454;-77
2023/03/02 09:05:37;;;;;;;1.33;1.17;;;3.00;99.90;;;;;;5055893;28;20442;-77
2023/03/02 09:08:05;;;;;;;5.90;1.07;;;3.20;99.90;;;;;;5055425;28;20473;-77
2023/03/02 09:10:31;;;;;;;6.90;0.90;;;3.30;99.90;;;;;;5055758;28;20450;-77
2023/03/02 09:12:59;;;;;;;1.73;1.23;;;3.50;99.90;;;;;;5055902;28;20489;-77
2023/03/02 09:15:27;;;;;;;3.80;1.20;;;3.70;99.90;;;;;;5055921;28;20446;-77
2023/03/02 09:17:54;;;;;;;0.93;0.93;;;3.90;99.90;;;;;;5055276;28;20977;-76
2023/03/02 09:20:21;;;;;;;4.47;0.73;;;4.10;99.90;;;;;;5055612;28;20447;-77
2023/03/02 09:22:49;;;;;;;0.97;0.90;;;4.20;99.90;;;;;;5055232;28;20442;-76
2023/03/02 09:25:18;;;;;;;7.37;1.63;;;4.20;99.90;;;;;;5055516;28;20453;-76
2023/03/02 09:27:45;;;;;;;1.20;1.10;;;4.30;99.90;;;;;;5055437;28;20890;-77
2023/03/02 09:30:13;;;;;;;8.17;2.87;;;4.40;99.90;;;;;;5054800;28;20821;-77
2023/03/02 09:32:42;;;;;;;0.80;0.80;;;4.50;99.90;;;;;;5055248;28;20945;-77
2023/03/02 09:35:09;;;;;;;1.00;0.80;;;4.70;99.90;;;;;;5055336;28;20446;-77
2023/03/02 09:37:37;;;;;;;3.70;1.00;;;4.80;99.90;;;;;;5054973;28;20466;-76
2023/03/02 09:40:06;;;;;;;2.33;1.17;;;4.80;99.90;;;;;;5054947;28;20919;-78
2023/03/02 09:42:51;;;;;;;2.80;1.03;;;5.00;99.90;;;;;;5055183;28;20453;-78
2023/03/02 09:45:30;;;;;;;3.20;1.90;;;5.10;99.90;;;;;;5055181;28;20441;-78
2023/03/02 09:48:11;;;;;;;3.97;0.63;;;5.10;99.90;;;;;;5055053;28;20473;-78
2023/03/02 09:50:45;;;;;;;3.73;1.07;;;5.20;99.90;;;;;;5055094;28;20434;-76
2023/03/02 09:53:28;;;;;;;1.70;1.33;;;5.40;99.90;;;;;;5054638;28;20470;-76
2023/03/02 09:55:58;;;;;;;3.17;1.80;;;5.60;99.90;;;;;;5054946;28;20427;-76
2023/03/02 09:58:29;;;;;;;3.70;1.43;;;5.50;99.90;;;;;;5054797;28;20549;-76
2023/03/02 10:00:58;;;;;;;2.70;1.00;;;5.60;99.90;;;;;;5054880;28;20431;-76
2023/03/02 10:03:31;;;;;;;6.80;1.70;;;5.70;99.90;;;;;;5055087;28;20423;-76
2023/03/02 10:05:58;;;;;;;4.83;1.30;;;5.80;99.90;;;;;;5054426;28;20438;-76
2023/03/02 10:08:27;;;;;;;5.67;1.73;;;6.00;99.90;;;;;;5054293;28;20466;-76
2023/03/02 10:11:02;;;;;;;1.33;1.23;;;6.00;99.90;;;;;;5054313;28;20818;-76
2023/03/02 10:13:33;;;;;;;6.27;1.50;;;5.90;99.90;;;;;;5054589;28;20473;-76
2023/03/02 10:16:12;;;;;;;4.63;1.50;;;5.90;99.90;;;;;;5054240;28;20806;-76
2023/03/02 10:18:45;;;;;;;4.13;1.00;;;5.90;99.90;;;;;;5054453;28;20469;-76
2023/03/02 10:21:20;;;;;;;1.87;1.47;;;5.90;99.90;;;;;;5054142;28;20430;-76
2023/03/02 10:23:53;;;;;;;1.87;1.67;;;5.90;99.90;;;;;;5054453;28;20437;-76
2023/03/02 10:26:29;;;;;;;1.80;1.03;;;6.00;99.90;;;;;;5054416;28;20434;-76
2023/03/02 10:29:03;;;;;;;5.47;0.87;;;5.90;99.90;;;;;;5054239;28;20466;-76
2023/03/02 10:31:32;;;;;;;1.57;1.47;;;5.90;99.90;;;;;;5054029;28;20910;-76
2023/03/02 10:34:01;;;;;;;5.70;1.93;;;5.80;99.90;;;;;;5054126;28;20489;-76
2023/03/02 10:36:30;;;;;;;6.83;1.20;;;5.80;99.90;;;;;;5054174;28;20450;-76
2023/03/02 10:38:59;;;;;;;4.77;1.90;;;5.90;99.90;;;;;;5053809;28;20486;-76
2023/03/02 10:41:30;;;;;;;4.60;1.50;;;6.00;99.90;;;;;;5053709;28;20453;-76
2023/03/02 10:44:01;;;;;;;1.40;0.73;;;6.10;99.90;;;;;;5053896;28;20433;-76
2023/03/02 10:46:39;;;;;;;2.50;2.30;;;6.20;99.90;;;;;;5054302;28;20427;-76
2023/03/02 10:49:26;;;;;;;7.53;1.57;;;6.30;99.90;;;;;;5053618;28;20835;-76
2023/03/02 10:51:59;;;;;;;2.80;1.47;;;6.50;99.90;;;;;;5053599;28;20916;-76
2023/03/02 10:54:28;;;;;;;2.70;2.27;;;6.60;99.90;;;;;;5053750;28;20478;-76
2023/03/02 10:56:57;;;;;;;2.27;1.30;;;6.70;99.90;;;;;;5053386;28;20477;-76
2023/03/02 10:59:46;;;;;;;2.30;2.00;;;6.70;99.90;;;;;;5053794;28;20434;-76
2023/03/02 11:02:16;;;;;;;8.30;2.70;;;6.70;99.90;;;;;;5052184;28;20473;-76
2023/03/02 11:04:45;;;;;;;2.20;1.87;;;6.60;99.90;;;;;;5053721;28;20795;-76
2023/03/02 11:07:16;;;;;;;2.70;1.60;;;6.70;99.90;;;;;;5053199;28;20464;-76
2023/03/02 11:09:43;;;;;;;0.97;0.93;;;6.70;99.90;;;;;;5053567;28;20506;-77
2023/03/02 11:12:15;;;;;;;5.47;1.50;;;6.80;99.90;;;;;;5053540;28;20453;-78
2023/03/02 11:14:42;;;;;;;2.33;1.87;;;6.80;99.90;;;;;;5053495;28;20470;-78
2023/03/02 11:17:32;;;;;;;5.80;1.83;;;6.80;99.90;;;;;;5053414;28;20474;-79
2023/03/02 11:20:02;;;;;;;11.23;1.90;;;6.90;99.90;;;;;;5053509;28;20434;-78
2023/03/02 11:22:36;;;;;;;7.03;2.17;;;7.10;99.90;;;;;;5053142;28;20442;-78
2023/03/02 11:25:07;;;;;;;4.13;2.47;;;7.10;99.90;;;;;;5053124;28;20438;-78
2023/03/02 11:27:39;;;;;;;1.80;1.63;;;7.20;99.90;;;;;;5053005;28;21000;-78
2023/03/02 11:30:12;;;;;;;4.43;2.20;;;7.30;99.90;;;;;;5053375;28;20536;-78
2023/03/02 11:32:44;;;;;;;2.23;1.60;;;7.40;99.90;;;;;;5053334;28;20442;-78
2023/03/02 11:35:18;;;;;;;2.20;1.67;;;7.50;99.90;;;;;;5053028;28;20838;-78
2023/03/02 11:37:49;;;;;;;1.20;1.03;;;7.60;99.90;;;;;;5052705;28;20866;-78
2023/03/02 11:40:22;;;;;;;2.57;1.73;;;7.70;99.90;;;;;;5053276;28;20430;-78
2023/03/02 11:42:50;;;;;;;3.67;1.20;;;7.80;99.90;;;;;;5053230;28;20435;-78
2023/03/02 11:45:21;;;;;;;7.27;2.37;;;7.80;99.90;;;;;;5053170;28;20451;-78
2023/03/02 11:47:52;;;;;;;1.73;0.90;;;7.90;99.90;;;;;;5053143;28;20466;-78
2023/03/02 11:50:21;;;;;;;4.43;2.27;;;8.00;99.90;;;;;;5053210;28;20426;-78
2023/03/02 11:52:52;;;;;;;5.97;2.43;;;8.00;99.90;;;;;;5053202;28;20446;-78
2023/03/02 11:55:22;;;;;;;2.27;1.53;;;8.00;99.90;;;;;;5057093;28;20470;-79
2023/03/02 11:57:51;;;;;;;6.90;2.20;;;8.10;99.90;;;;;;5057117;28;20466;-78
2023/03/02 12:00:28;;;;;;;5.40;1.93;;;8.00;99.90;;;;;;5057147;28;20435;-78
2023/03/02 12:02:59;;;;;;;8.57;2.20;;;7.90;99.90;;;;;;5056780;28;20433;-78
2023/03/02 12:05:30;;;;;;;4.60;2.10;;;7.80;99.90;;;;;;5056715;28;20446;-79
2023/03/02 12:07:59;;;;;;;3.60;2.60;;;7.90;99.90;;;;;;5056943;28;20462;-78
2023/03/02 12:10:31;;;;;;;2.00;1.90;;;8.10;99.90;;;;;;5056885;28;20454;-78
2023/03/02 12:13:12;;;;;;;3.10;1.63;;;8.10;99.90;;;;;;5056622;28;20914;-78
2023/03/02 12:15:41;;;;;;;5.03;3.37;;;8.20;99.90;;;;;;5056789;28;20473;-79
2023/03/02 12:18:31;;;;;;;3.10;1.10;;;8.40;99.90;;;;;;5057046;28;20462;-79
2023/03/02 12:21:04;;;;;;;9.53;2.40;;;8.60;99.90;;;;;;5056825;28;20450;-78
2023/03/02 12:23:32;;;;;;;2.60;1.90;;;8.60;99.90;;;;;;5056713;28;20427;-78
2023/03/02 12:26:08;;;;;;;16.03;3.80;;;8.70;99.90;;;;;;5056670;28;20446;-78
2023/03/02 12:28:37;;;;;;;5.87;1.77;;;8.70;99.90;;;;;;5056573;28;20470;-79
2023/03/02 12:31:11;;;;;;;3.97;1.67;;;8.70;99.90;;;;;;5056520;28;20530;-79
2023/03/02 12:33:41;;;;;;;13.87;3.00;;;8.60;99.90;;;;;;5056724;28;20427;-79
2023/03/02 12:36:18;;;;;;;3.03;1.40;;;8.60;99.90;;;;;;5056180;28;20446;-79
2023/03/02 12:38:56;;;;;;;6.13;2.23;;;8.60;99.90;;;;;;5056153;28;20485;-79
2023/03/02 12:41:40;;;;;;;3.17;1.33;;;8.70;99.90;;;;;;5056431;28;20422;-79
2023/03/02 12:44:22;;;;;;;2.67;2.30;;;8.70;99.90;;;;;;5056336;28;20496;-78
2023/03/02 12:46:51;;;;;;;12.53;3.23;;;8.60;99.90;;;;;;5056214;28;20434;-78
2023/03/02 12:49:34;;;;;;;11.93;2.97;;;8.50;99.90;;;;;;5056205;28;20457;-79
2023/03/02 12:52:04;;;;;;;5.77;2.43;;;8.30;99.90;;;;;;5056197;28;20783;-79
2023/03/02 12:54:33;;;;;;;5.13;2.97;;;8.10;99.90;;;;;;5056067;28;20478;-79
2023/03/02 12:57:07;;;;;;;11.73;3.67;;;7.80;99.90;;;;;;5055938;28;20446;-79
2023/03/02 12:59:34;;;;;;;8.43;3.13;;;7.60;99.90;;;;;;5055734;28;20887;-78
2023/03/02 13:02:12;;;;;;;4.67;2.70;;;7.40;99.90;;;;;;5055674;28;20976;-79
2023/03/02 13:04:39;;;;;;;5.30;1.80;;;7.10;99.90;;;;;;5055072;28;20922;-79
2023/03/02 13:07:15;;;;;;;3.10;1.67;;;6.90;99.90;;;;;;5055745;28;20469;-79